Naples, FL

15:50 EST le 23 novembre 2014 (GMT -0500)
KFLNAPLE31 | Change Station
CLOSE
Current Station
Stations météorologiques personnelles
Location: Naples, FL
Altitude: 20 ft
Stations météo à proximité

Alt. 20 ft 26.16 °N, 81.78 °W | Updated 7 minutes ago

Mostly Cloudy
Nuageux
83.1 ° F
Paraît 91 ° F
N
18.0
Vent Variable Vent de SE
Gusts 23.0 mph

Aujourd'hui
Haut(e) -- | Bas -- ° F
--% Risque de précip.
Hier
Haut(e) -- | Bas -- ° F
Precip. -- pouce
6:51 AM 5:35 PM
Nouvelle lune, 2% visible
Pression 29.89 pouce
Visibilité 10.0 Miles terrestres
Nuages Nuages épars 2500 ft
Nuages épars 4400 ft
Nuageux 5500 ft
indice de chaleur 91 ° F
Point de rosée 76 ° F
Humidité 78%
Précipitations 0.00 pouce
Profondeur de la couche neigeuse Non disponible.
UV 1 sur 12
Pollen 3.90 sur 12
Qualité de l'air Non disponible.
Flu Activity Non disponible.
SPECI KAPF 232044Z 16015KT 10SM SCT025 SCT044 BKN055 28/22 A2989 RMK AO2 T02780222

More Conditions Fewer Conditions

Pression 29.89 pouce
Visibilité 10.0 Miles terrestres
Nuages Nuages épars 2500 ft
Nuages épars 4400 ft
Nuageux 5500 ft
indice de chaleur 91 ° F
Point de rosée 76 ° F
Humidité 78%
Précipitations 0.00 pouce
Profondeur de la couche neigeuse Non disponible.
UV 1 sur 12
Pollen 3.90 sur 12
Qualité de l'air Non disponible.
Flu Activity Non disponible.
SPECI KAPF 232044Z 16015KT 10SM SCT025 SCT044 BKN055 28/22 A2989 RMK AO2 T02780222

More Conditions Fewer Conditions

10-Day Weather Forecast

Almanac

Astronomie

Nov. 23, 2014 Lever Coucher
Temps réel
Crépuscule civil
Crépuscule nautique
Crépuscule astronomique
Lune
Durée de lumière visible
Longueur du jour
Tomorrow will be .
, % of the Moon is Illuminated

Extrêmes aujourd'hui

State Highs State Lows

Community

WunderPhotos

Upload Photos

1,773,171 Photos téléchargées !

WunderBlogs® & News

Nearby

Qualité de l'air

  Qualité de l'air Indice de la qualité de l'air Polluant
Not available.

Épaisseur de neige

Station Depth Altitude

Activité sismique

Ville Distance Mag. Time & Date
Minimum magnitude displayed is 2.5.

Températures des eaux côtières

Lieu Température

Stations météo à proximité